Time;durP1;ratioP1;P1;durP2;ratioP2;P2;SDS_P1;SDS_P2;PMS_P1;PMS_P2;Temp;Humidity;BMP_temperature;BMP_pressure;BME280_temperature;BME280_humidity;BME280_pressure;Samples;Min_cycle;Max_cycle;Signal;HPM_P1;HPM_P2
2021/03/07 00:00:22;;;;;;;10.10;4.55;;;;;;;;;;5051046;28;20032;-63
2021/03/07 00:02:48;;;;;;;9.82;4.55;;;;;;;;;;5048529;28;20017;-62
2021/03/07 00:05:14;;;;;;;18.30;5.45;;;;;;;;;;5051324;28;20024;-64
2021/03/07 00:07:40;;;;;;;10.40;5.07;;;;;;;;;;5048614;28;20052;-64
2021/03/07 00:10:06;;;;;;;14.98;6.50;;;;;;;;;;5045399;28;20059;-65
2021/03/07 00:12:31;;;;;;;11.80;4.95;;;;;;;;;;5049602;28;20434;-65
2021/03/07 00:14:57;;;;;;;10.25;4.65;;;;;;;;;;5050733;28;20028;-63
2021/03/07 00:17:22;;;;;;;9.45;5.63;;;;;;;;;;5050194;28;20017;-63
2021/03/07 00:19:47;;;;;;;12.45;4.70;;;;;;;;;;5050414;28;20025;-65
2021/03/07 00:22:12;;;;;;;13.25;5.13;;;;;;;;;;5050008;28;20042;-63
2021/03/07 00:24:37;;;;;;;13.57;5.10;;;;;;;;;;5050617;28;20027;-65
2021/03/07 00:27:02;;;;;;;13.10;5.10;;;;;;;;;;5049986;28;20385;-63
2021/03/07 00:29:28;;;;;;;16.70;5.38;;;;;;;;;;5048642;28;20119;-64
2021/03/07 00:31:53;;;;;;;14.27;5.93;;;;;;;;;;5049020;28;20098;-64
2021/03/07 00:34:18;;;;;;;15.98;7.15;;;;;;;;;;5050266;28;20036;-63
2021/03/07 00:36:43;;;;;;;13.68;6.47;;;;;;;;;;5049704;28;20029;-63
2021/03/07 00:39:09;;;;;;;12.82;5.47;;;;;;;;;;5048569;28;20024;-64
2021/03/07 00:41:34;;;;;;;10.63;5.50;;;;;;;;;;5042721;28;20021;-64
2021/03/07 00:44:00;;;;;;;15.40;5.45;;;;;;;;;;5049023;28;20044;-64
2021/03/07 00:46:25;;;;;;;13.63;5.28;;;;;;;;;;5048957;28;20096;-64
2021/03/07 00:48:50;;;;;;;12.57;5.30;;;;;;;;;;5047558;28;20025;-64
2021/03/07 00:51:15;;;;;;;15.07;5.97;;;;;;;;;;5048194;28;20700;-64
2021/03/07 00:53:41;;;;;;;13.82;6.28;;;;;;;;;;5047907;28;20017;-64
2021/03/07 00:56:06;;;;;;;11.80;5.93;;;;;;;;;;5048504;28;20136;-63
2021/03/07 00:58:31;;;;;;;13.48;5.32;;;;;;;;;;5049645;28;20025;-63
2021/03/07 01:00:57;;;;;;;13.90;5.80;;;;;;;;;;5042247;28;20104;-63
2021/03/07 01:03:22;;;;;;;16.73;5.97;;;;;;;;;;5050030;28;20374;-63
2021/03/07 01:05:47;;;;;;;17.52;4.95;;;;;;;;;;5049639;28;20500;-64
2021/03/07 01:08:12;;;;;;;13.35;5.97;;;;;;;;;;5048108;28;20024;-63
2021/03/07 01:10:39;;;;;;;11.15;5.43;;;;;;;;;;5043792;28;20559;-65
2021/03/07 01:13:05;;;;;;;12.32;5.45;;;;;;;;;;5048503;28;20029;-63
2021/03/07 01:15:30;;;;;;;9.88;5.20;;;;;;;;;;5049867;28;20056;-64
2021/03/07 01:17:56;;;;;;;9.18;5.80;;;;;;;;;;5036062;28;20060;-65
2021/03/07 01:20:21;;;;;;;13.48;5.25;;;;;;;;;;5049106;28;20388;-63
2021/03/07 01:22:47;;;;;;;15.68;5.85;;;;;;;;;;5049594;28;20017;-65
2021/03/07 01:25:12;;;;;;;10.00;5.70;;;;;;;;;;5050227;28;20040;-64
2021/03/07 01:27:38;;;;;;;16.45;5.82;;;;;;;;;;5049974;28;20082;-64
2021/03/07 01:30:09;;;;;;;13.98;5.20;;;;;;;;;;5049132;28;20100;-63
2021/03/07 01:32:35;;;;;;;11.82;5.30;;;;;;;;;;5049442;28;20029;-64
2021/03/07 01:35:00;;;;;;;9.55;5.25;;;;;;;;;;5049186;28;20096;-65
2021/03/07 01:37:26;;;;;;;12.27;5.40;;;;;;;;;;5048826;28;20029;-65
2021/03/07 01:39:51;;;;;;;14.80;5.10;;;;;;;;;;5038196;28;20032;-64
2021/03/07 01:42:16;;;;;;;11.05;5.10;;;;;;;;;;5048436;28;20385;-64
2021/03/07 01:44:42;;;;;;;11.32;6.07;;;;;;;;;;5050219;28;20483;-63
2021/03/07 01:47:07;;;;;;;12.95;5.68;;;;;;;;;;5049135;28;20029;-64
2021/03/07 01:49:35;;;;;;;14.98;5.75;;;;;;;;;;5047954;28;20029;-63
2021/03/07 01:52:01;;;;;;;11.82;4.97;;;;;;;;;;5049051;28;20056;-65
2021/03/07 01:54:26;;;;;;;12.38;5.43;;;;;;;;;;5049434;28;20053;-63
2021/03/07 01:56:52;;;;;;;14.65;5.50;;;;;;;;;;5042957;28;20382;-65
2021/03/07 01:59:19;;;;;;;9.20;5.32;;;;;;;;;;5048740;28;20017;-64
2021/03/07 02:01:45;;;;;;;11.43;5.50;;;;;;;;;;5049145;28;20266;-63
2021/03/07 02:04:10;;;;;;;11.35;4.93;;;;;;;;;;5049453;28;20105;-63
2021/03/07 02:06:35;;;;;;;14.15;5.57;;;;;;;;;;5048885;28;20036;-63
2021/03/07 02:09:00;;;;;;;10.15;5.28;;;;;;;;;;5048947;28;20040;-63
2021/03/07 02:11:26;;;;;;;11.95;5.75;;;;;;;;;;5035286;28;20083;-63
2021/03/07 02:13:52;;;;;;;11.38;5.28;;;;;;;;;;5048477;28;20482;-63
2021/03/07 02:16:21;;;;;;;8.80;5.00;;;;;;;;;;5047584;28;20071;-63
2021/03/07 02:18:48;;;;;;;14.07;4.97;;;;;;;;;;5047479;28;20516;-63
2021/03/07 02:21:20;;;;;;;14.50;5.78;;;;;;;;;;5029982;28;20064;-63
2021/03/07 02:24:05;;;;;;;13.55;5.75;;;;;;;;;;5047603;28;20021;-63
2021/03/07 02:26:37;;;;;;;12.30;5.70;;;;;;;;;;5041284;28;20075;-63
2021/03/07 02:29:03;;;;;;;13.57;4.93;;;;;;;;;;5052226;28;20040;-63
2021/03/07 02:31:28;;;;;;;12.75;5.50;;;;;;;;;;5053103;28;20405;-63
2021/03/07 02:34:14;;;;;;;16.75;5.72;;;;;;;;;;5051629;28;20047;-63
2021/03/07 02:36:42;;;;;;;9.82;5.55;;;;;;;;;;5034768;28;20041;-63
2021/03/07 02:39:07;;;;;;;11.25;5.18;;;;;;;;;;5051273;28;20037;-63
2021/03/07 02:41:34;;;;;;;11.45;5.38;;;;;;;;;;5052190;28;20025;-63
2021/03/07 02:44:02;;;;;;;10.93;5.47;;;;;;;;;;5060365;22;20060;-63
2021/03/07 02:46:30;;;;;;;14.07;5.97;;;;;;;;;;5051918;28;20154;-63
2021/03/07 02:48:56;;;;;;;10.90;5.43;;;;;;;;;;5052509;28;20388;-63
2021/03/07 02:51:26;;;;;;;12.68;5.72;;;;;;;;;;5052864;28;20033;-64
2021/03/07 02:53:52;;;;;;;17.30;6.63;;;;;;;;;;5048382;28;20033;-64
2021/03/07 02:56:20;;;;;;;9.25;4.95;;;;;;;;;;5051183;28;20029;-65
2021/03/07 02:58:47;;;;;;;16.33;6.07;;;;;;;;;;5052199;28;20027;-65
2021/03/07 03:01:15;;;;;;;12.88;5.50;;;;;;;;;;5051752;28;20017;-65
2021/03/07 03:03:41;;;;;;;11.35;5.43;;;;;;;;;;5052891;28;20032;-65
2021/03/07 03:06:08;;;;;;;13.77;5.68;;;;;;;;;;5047597;28;20020;-65
2021/03/07 03:08:34;;;;;;;9.88;5.45;;;;;;;;;;5052153;28;20033;-66
2021/03/07 03:11:00;;;;;;;11.25;7.40;;;;;;;;;;5052489;28;20447;-64
2021/03/07 03:13:26;;;;;;;12.63;6.22;;;;;;;;;;5052857;28;20021;-64
2021/03/07 03:15:52;;;;;;;12.70;5.97;;;;;;;;;;5051513;28;20086;-65
2021/03/07 03:18:17;;;;;;;16.83;6.45;;;;;;;;;;5052174;28;20021;-66
2021/03/07 03:20:43;;;;;;;12.40;5.43;;;;;;;;;;5052819;28;20017;-65
2021/03/07 03:23:08;;;;;;;13.93;5.45;;;;;;;;;;5052394;28;20016;-63
2021/03/07 03:25:34;;;;;;;14.73;6.32;;;;;;;;;;5052722;28;20048;-65
2021/03/07 03:27:59;;;;;;;10.30;5.13;;;;;;;;;;5052186;28;20108;-65
2021/03/07 03:30:26;;;;;;;11.82;5.70;;;;;;;;;;5050833;28;20021;-65
2021/03/07 03:32:51;;;;;;;12.40;6.05;;;;;;;;;;5049814;28;20381;-65
2021/03/07 03:35:17;;;;;;;11.05;5.53;;;;;;;;;;5051367;28;20017;-66
2021/03/07 03:37:43;;;;;;;15.98;6.20;;;;;;;;;;5051170;28;20029;-65
2021/03/07 03:40:09;;;;;;;13.88;7.60;;;;;;;;;;5052241;28;20024;-64
2021/03/07 03:42:38;;;;;;;13.45;6.53;;;;;;;;;;5051758;28;20009;-65
2021/03/07 03:45:04;;;;;;;14.18;6.82;;;;;;;;;;5052098;28;20538;-65
2021/03/07 03:47:30;;;;;;;14.68;6.15;;;;;;;;;;5051984;28;20120;-66
2021/03/07 03:49:58;;;;;;;12.40;6.03;;;;;;;;;;5051936;28;20730;-65
2021/03/07 03:52:23;;;;;;;14.35;6.18;;;;;;;;;;5051635;28;20417;-64
2021/03/07 03:55:12;;;;;;;15.18;6.53;;;;;;;;;;5051749;28;20083;-65
2021/03/07 03:57:37;;;;;;;9.70;5.25;;;;;;;;;;5049377;28;20025;-64
2021/03/07 04:00:04;;;;;;;12.98;6.15;;;;;;;;;;5051546;28;20024;-65
2021/03/07 04:02:32;;;;;;;13.55;6.03;;;;;;;;;;5032096;28;20025;-64
2021/03/07 04:04:58;;;;;;;16.15;5.72;;;;;;;;;;5045051;28;20021;-65
2021/03/07 04:07:24;;;;;;;13.38;6.35;;;;;;;;;;5051383;28;20547;-65
2021/03/07 04:09:50;;;;;;;11.50;5.78;;;;;;;;;;5051512;28;20075;-66
2021/03/07 04:12:15;;;;;;;12.25;5.75;;;;;;;;;;5052087;28;20020;-65
2021/03/07 04:14:42;;;;;;;14.50;6.40;;;;;;;;;;5050005;28;20477;-65
2021/03/07 04:17:07;;;;;;;16.83;6.45;;;;;;;;;;5051938;28;20424;-66
2021/03/07 04:19:33;;;;;;;11.73;5.60;;;;;;;;;;5051040;28;20025;-66
2021/03/07 04:21:59;;;;;;;18.40;6.53;;;;;;;;;;5048299;28;20021;-66
2021/03/07 04:24:25;;;;;;;11.52;6.32;;;;;;;;;;5051122;28;20017;-66
2021/03/07 04:26:50;;;;;;;13.65;5.82;;;;;;;;;;5050783;28;20036;-66
2021/03/07 04:29:16;;;;;;;13.60;6.22;;;;;;;;;;5050722;28;20373;-66
2021/03/07 04:31:41;;;;;;;18.33;6.65;;;;;;;;;;5051815;28;20029;-64
2021/03/07 04:34:07;;;;;;;14.40;6.13;;;;;;;;;;5051368;28;20028;-66
2021/03/07 04:36:32;;;;;;;11.20;6.82;;;;;;;;;;5049629;28;20504;-65
2021/03/07 04:38:57;;;;;;;14.30;6.18;;;;;;;;;;5049159;28;20342;-66
2021/03/07 04:41:23;;;;;;;18.75;7.40;;;;;;;;;;5052021;28;20110;-65
2021/03/07 04:43:49;;;;;;;13.38;6.28;;;;;;;;;;5050949;28;20121;-66
2021/03/07 04:46:17;;;;;;;11.27;5.95;;;;;;;;;;5051174;28;20032;-65
2021/03/07 04:48:42;;;;;;;12.05;6.05;;;;;;;;;;5050567;28;20025;-66
2021/03/07 04:51:07;;;;;;;13.77;6.63;;;;;;;;;;5051494;28;20437;-64
2021/03/07 04:53:32;;;;;;;13.18;6.45;;;;;;;;;;5049803;28;20013;-66
2021/03/07 04:55:57;;;;;;;14.57;6.88;;;;;;;;;;5051524;28;20028;-65
2021/03/07 04:58:23;;;;;;;14.35;6.15;;;;;;;;;;5052398;28;20021;-66
2021/03/07 05:00:48;;;;;;;11.65;6.07;;;;;;;;;;5052051;28;20481;-66
2021/03/07 05:03:13;;;;;;;16.50;6.10;;;;;;;;;;5050705;28;20071;-65
2021/03/07 05:05:38;;;;;;;14.35;6.03;;;;;;;;;;5050071;28;20028;-65
2021/03/07 05:08:06;;;;;;;12.00;6.57;;;;;;;;;;5050585;28;20100;-66
2021/03/07 05:10:32;;;;;;;12.73;6.18;;;;;;;;;;5049412;28;20582;-66
2021/03/07 05:12:57;;;;;;;14.25;6.57;;;;;;;;;;5049944;28;20059;-66
2021/03/07 05:15:22;;;;;;;12.00;6.57;;;;;;;;;;5050246;28;20021;-66
2021/03/07 05:17:47;;;;;;;13.43;6.15;;;;;;;;;;5049726;28;20032;-66
2021/03/07 05:20:13;;;;;;;12.13;6.07;;;;;;;;;;5050874;28;20017;-65
2021/03/07 05:22:38;;;;;;;12.40;5.55;;;;;;;;;;5049797;28;20017;-65
2021/03/07 05:25:03;;;;;;;13.25;6.13;;;;;;;;;;5048989;28;20248;-65
2021/03/07 05:27:28;;;;;;;15.02;6.32;;;;;;;;;;5047974;28;20025;-65
2021/03/07 05:29:54;;;;;;;10.98;6.28;;;;;;;;;;5049912;28;20075;-65
2021/03/07 05:32:19;;;;;;;12.90;6.60;;;;;;;;;;5049630;28;20597;-66
2021/03/07 05:34:44;;;;;;;11.40;6.43;;;;;;;;;;5049623;28;20028;-64
2021/03/07 05:37:09;;;;;;;19.83;6.18;;;;;;;;;;5050321;28;20082;-65
2021/03/07 05:39:35;;;;;;;15.75;6.53;;;;;;;;;;5049590;28;20051;-65
2021/03/07 05:42:00;;;;;;;15.82;6.65;;;;;;;;;;5049884;28;20032;-66
2021/03/07 05:44:26;;;;;;;12.60;6.20;;;;;;;;;;5050207;28;20024;-65
2021/03/07 05:46:51;;;;;;;19.85;7.65;;;;;;;;;;5049997;28;20021;-66
2021/03/07 05:49:16;;;;;;;21.25;8.02;;;;;;;;;;5050261;28;20051;-65
2021/03/07 05:51:42;;;;;;;14.57;6.90;;;;;;;;;;5049761;28;20031;-63
2021/03/07 05:54:07;;;;;;;15.35;6.80;;;;;;;;;;5049397;28;20024;-65
2021/03/07 05:56:33;;;;;;;17.70;7.13;;;;;;;;;;5051468;28;20374;-66
2021/03/07 05:58:58;;;;;;;13.23;7.25;;;;;;;;;;5054042;28;20480;-65
2021/03/07 06:01:23;;;;;;;15.52;6.50;;;;;;;;;;5053574;28;20048;-66
2021/03/07 06:03:49;;;;;;;14.07;6.80;;;;;;;;;;5054246;28;20076;-66
2021/03/07 06:06:14;;;;;;;15.55;7.72;;;;;;;;;;5053803;28;20020;-65
2021/03/07 06:08:39;;;;;;;13.13;7.38;;;;;;;;;;5054751;28;20035;-65
2021/03/07 06:11:04;;;;;;;12.18;6.28;;;;;;;;;;5053944;28;20013;-66
2021/03/07 06:13:37;;;;;;;10.38;6.18;;;;;;;;;;5052210;28;20029;-66
2021/03/07 06:16:09;;;;;;;18.73;6.95;;;;;;;;;;5051413;28;20430;-65
2021/03/07 06:18:41;;;;;;;18.33;6.68;;;;;;;;;;5049835;28;20036;-62
2021/03/07 06:21:26;;;;;;;14.02;7.20;;;;;;;;;;5051213;28;20021;-64
2021/03/07 06:23:52;;;;;;;13.68;7.60;;;;;;;;;;5051725;28;20062;-65
2021/03/07 06:26:17;;;;;;;17.83;8.15;;;;;;;;;;5051346;28;20017;-64
2021/03/07 06:28:42;;;;;;;17.70;7.35;;;;;;;;;;5051517;28;20464;-64
2021/03/07 06:31:28;;;;;;;21.10;7.30;;;;;;;;;;5050525;28;20381;-65
2021/03/07 06:33:57;;;;;;;14.40;7.68;;;;;;;;;;5051458;28;20020;-64
2021/03/07 06:36:23;;;;;;;16.52;8.13;;;;;;;;;;5051791;28;20032;-65
2021/03/07 06:38:51;;;;;;;13.65;7.03;;;;;;;;;;5051043;28;20024;-65
2021/03/07 06:41:17;;;;;;;17.92;8.25;;;;;;;;;;5047609;28;20104;-64
2021/03/07 06:43:42;;;;;;;15.68;7.97;;;;;;;;;;5049823;28;20059;-64
2021/03/07 06:46:07;;;;;;;17.92;7.72;;;;;;;;;;5048588;28;20531;-65
2021/03/07 06:48:33;;;;;;;21.75;8.18;;;;;;;;;;5050200;28;20508;-65
2021/03/07 06:50:59;;;;;;;17.48;7.15;;;;;;;;;;5050778;28;20087;-66
2021/03/07 06:53:31;;;;;;;14.52;7.85;;;;;;;;;;5050783;28;20029;-65
2021/03/07 06:55:56;;;;;;;18.33;8.98;;;;;;;;;;5051085;28;20024;-64
2021/03/07 06:58:21;;;;;;;19.20;8.73;;;;;;;;;;5050218;28;20021;-66
2021/03/07 07:00:47;;;;;;;18.27;7.32;;;;;;;;;;5050918;28;20071;-65
2021/03/07 07:03:13;;;;;;;19.25;8.48;;;;;;;;;;5051013;28;20025;-65
2021/03/07 07:05:38;;;;;;;19.45;9.38;;;;;;;;;;5048077;28;20033;-65
2021/03/07 07:08:04;;;;;;;18.50;8.23;;;;;;;;;;5044153;28;20063;-65
2021/03/07 07:10:29;;;;;;;16.20;8.63;;;;;;;;;;5045607;28;20425;-65
2021/03/07 07:13:02;;;;;;;22.08;10.15;;;;;;;;;;5052869;28;20017;-65
2021/03/07 07:15:28;;;;;;;19.67;8.40;;;;;;;;;;5051553;28;20035;-63
2021/03/07 07:17:53;;;;;;;17.48;8.52;;;;;;;;;;5051860;28;20029;-64
2021/03/07 07:20:18;;;;;;;17.27;9.48;;;;;;;;;;5054669;28;20031;-65
2021/03/07 07:22:43;;;;;;;20.85;9.32;;;;;;;;;;5053173;28;20024;-66
2021/03/07 07:25:09;;;;;;;16.77;8.05;;;;;;;;;;5052907;28;20104;-65
2021/03/07 07:27:34;;;;;;;16.77;8.50;;;;;;;;;;5052266;28;20516;-65
2021/03/07 07:29:59;;;;;;;14.77;8.43;;;;;;;;;;5051005;28;20078;-65
2021/03/07 07:32:31;;;;;;;21.60;9.07;;;;;;;;;;5053789;28;20075;-65
2021/03/07 07:35:06;;;;;;;17.42;9.52;;;;;;;;;;5044972;28;20025;-65
2021/03/07 07:37:38;;;;;;;13.05;7.57;;;;;;;;;;5053778;28;20063;-65
2021/03/07 07:40:03;;;;;;;16.63;8.35;;;;;;;;;;5039689;28;20425;-65
2021/03/07 07:42:34;;;;;;;14.32;8.15;;;;;;;;;;5051109;28;20079;-66
2021/03/07 07:44:59;;;;;;;;;;;;;;;;;;5056497;28;20047;-66
2021/03/07 07:47:25;;;;;;;12.10;7.78;;;;;;;;;;5053626;28;19916;-65
2021/03/07 07:49:51;;;;;;;15.73;7.63;;;;;;;;;;5053332;28;20381;-64
2021/03/07 07:52:32;;;;;;;14.32;8.23;;;;;;;;;;5051345;28;20416;-65
2021/03/07 07:55:06;;;;;;;14.95;7.90;;;;;;;;;;5048040;28;20115;-65
2021/03/07 07:57:31;;;;;;;12.60;7.47;;;;;;;;;;5051777;28;20037;-64
2021/03/07 07:59:56;;;;;;;11.20;7.22;;;;;;;;;;5051676;28;20009;-64
2021/03/07 08:02:40;;;;;;;13.60;7.50;;;;;;;;;;5054163;28;20032;-65
2021/03/07 08:05:26;;;;;;;25.15;8.30;;;;;;;;;;5055648;28;20025;-64
2021/03/07 08:07:55;;;;;;;12.00;7.13;;;;;;;;;;5037717;28;20027;-65
2021/03/07 08:10:40;;;;;;;11.60;7.80;;;;;;;;;;5054773;28;20021;-65
2021/03/07 08:13:06;;;;;;;11.20;7.15;;;;;;;;;;5044294;28;20071;-65
2021/03/07 08:15:32;;;;;;;11.73;7.38;;;;;;;;;;5059649;28;20033;-66
2021/03/07 08:18:02;;;;;;;11.70;7.32;;;;;;;;;;5059782;28;20028;-65
2021/03/07 08:20:54;;;;;;;11.07;7.18;;;;;;;;;;5058248;28;20071;-65
2021/03/07 08:23:20;;;;;;;11.95;7.22;;;;;;;;;;5064978;28;20085;-66
2021/03/07 08:25:45;;;;;;;10.75;7.32;;;;;;;;;;5059642;28;20013;-66
2021/03/07 08:28:26;;;;;;;12.32;7.38;;;;;;;;;;5056762;28;20032;-65
2021/03/07 08:31:01;;;;;;;18.63;6.82;;;;;;;;;;5064054;28;20029;-65
2021/03/07 08:33:30;;;;;;;14.73;7.78;;;;;;;;;;5059002;28;20032;-66
2021/03/07 08:36:15;;;;;;;13.10;7.53;;;;;;;;;;5058515;28;20025;-64
2021/03/07 08:41:19;;;;;;;13.00;6.55;;;;;;;;;;5058980;28;20029;-66
2021/03/07 08:43:46;;;;;;;13.02;7.05;;;;;;;;;;5052229;28;20021;-65
2021/03/07 08:46:15;;;;;;;11.48;6.00;;;;;;;;;;5046588;28;20108;-64
2021/03/07 08:48:41;;;;;;;15.52;6.85;;;;;;;;;;5048075;28;20037;-64
2021/03/07 08:51:07;;;;;;;12.77;7.55;;;;;;;;;;5048598;28;20032;-65
2021/03/07 08:53:34;;;;;;;13.15;7.55;;;;;;;;;;5048650;28;20035;-64
2021/03/07 08:55:59;;;;;;;13.02;7.00;;;;;;;;;;5048347;28;20012;-64
2021/03/07 08:58:24;;;;;;;13.30;7.20;;;;;;;;;;5046651;28;20564;-64
2021/03/07 09:00:51;;;;;;;13.00;7.38;;;;;;;;;;5044766;28;20028;-64
2021/03/07 09:03:17;;;;;;;12.80;7.32;;;;;;;;;;5028835;28;20059;-64
2021/03/07 09:05:42;;;;;;;9.70;6.25;;;;;;;;;;5045316;28;20020;-64
2021/03/07 09:08:08;;;;;;;13.57;7.90;;;;;;;;;;5042781;28;20036;-64
2021/03/07 09:10:34;;;;;;;12.15;6.70;;;;;;;;;;5046173;28;20028;-64
2021/03/07 09:13:06;;;;;;;12.25;7.13;;;;;;;;;;5029182;28;20166;-64
2021/03/07 09:15:31;;;;;;;12.38;7.13;;;;;;;;;;5046484;28;20024;-64
2021/03/07 09:17:56;;;;;;;12.82;5.90;;;;;;;;;;5039736;28;20022;-64
2021/03/07 09:20:21;;;;;;;15.17;6.50;;;;;;;;;;5049120;28;20049;-64
2021/03/07 09:22:46;;;;;;;11.68;6.20;;;;;;;;;;5047619;28;20275;-64
2021/03/07 09:25:15;;;;;;;9.73;5.97;;;;;;;;;;5048991;28;20048;-64
2021/03/07 09:27:41;;;;;;;13.75;6.80;;;;;;;;;;5049318;28;20066;-64
2021/03/07 09:30:10;;;;;;;11.85;6.50;;;;;;;;;;5049519;28;20707;-64
2021/03/07 09:32:37;;;;;;;11.52;5.43;;;;;;;;;;5048020;28;20025;-62
2021/03/07 09:35:22;;;;;;;12.63;5.78;;;;;;;;;;5033403;28;20028;-64
2021/03/07 09:37:55;;;;;;;11.98;5.82;;;;;;;;;;5039625;28;20038;-64
2021/03/07 09:40:20;;;;;;;9.65;5.32;;;;;;;;;;5047502;28;20091;-64
2021/03/07 09:42:52;;;;;;;12.95;6.45;;;;;;;;;;5045969;28;20020;-64
2021/03/07 09:45:18;;;;;;;12.30;6.05;;;;;;;;;;5045922;28;20088;-64
2021/03/07 09:47:43;;;;;;;14.98;5.78;;;;;;;;;;5044329;28;20055;-64
2021/03/07 09:50:09;;;;;;;14.13;6.38;;;;;;;;;;5032923;28;20076;-64
2021/03/07 09:52:34;;;;;;;17.42;6.82;;;;;;;;;;5044829;28;20033;-64
2021/03/07 09:55:00;;;;;;;11.18;6.93;;;;;;;;;;5047927;28;20036;-64
2021/03/07 09:57:25;;;;;;;11.40;6.72;;;;;;;;;;5047714;28;20112;-64
2021/03/07 09:59:52;;;;;;;15.20;7.32;;;;;;;;;;5047385;28;20458;-64
2021/03/07 10:02:17;;;;;;;18.38;7.20;;;;;;;;;;5047223;28;20465;-64
2021/03/07 10:04:47;;;;;;;16.60;6.82;;;;;;;;;;5047454;28;20025;-64
2021/03/07 10:07:12;;;;;;;13.97;7.07;;;;;;;;;;5045146;28;20032;-63
2021/03/07 10:10:07;;;;;;;16.90;7.88;;;;;;;;;;5046902;28;20022;-64
2021/03/07 10:12:41;;;;;;;12.52;7.30;;;;;;;;;;5024113;28;20051;-64
2021/03/07 10:15:07;;;;;;;11.82;6.72;;;;;;;;;;5046276;28;20128;-64
2021/03/07 10:17:40;;;;;;;13.65;7.13;;;;;;;;;;5047608;28;20032;-64
2021/03/07 10:20:06;;;;;;;9.18;5.75;;;;;;;;;;5047217;28;20376;-64
2021/03/07 10:22:35;;;;;;;14.98;6.63;;;;;;;;;;5046937;28;20033;-62
2021/03/07 10:25:01;;;;;;;15.52;7.15;;;;;;;;;;5047120;28;20421;-64
2021/03/07 10:27:29;;;;;;;14.05;6.00;;;;;;;;;;5047354;28;20063;-64
2021/03/07 10:29:54;;;;;;;13.32;7.05;;;;;;;;;;5046423;28;20059;-64
2021/03/07 10:32:20;;;;;;;15.10;6.97;;;;;;;;;;5047276;28;20029;-63
2021/03/07 10:34:49;;;;;;;19.55;7.07;;;;;;;;;;5046227;28;20090;-63
2021/03/07 10:37:32;;;;;;;19.30;6.72;;;;;;;;;;5044595;28;20025;-63
2021/03/07 10:39:58;;;;;;;15.52;7.40;;;;;;;;;;5041120;28;20017;-64
2021/03/07 10:42:30;;;;;;;14.63;6.10;;;;;;;;;;5047823;28;20708;-64
2021/03/07 10:44:55;;;;;;;13.63;6.55;;;;;;;;;;5047738;28;20299;-64
2021/03/07 10:47:20;;;;;;;10.50;6.20;;;;;;;;;;5049842;28;20110;-65
2021/03/07 10:49:54;;;;;;;12.43;6.50;;;;;;;;;;5050430;28;20021;-64
2021/03/07 10:52:19;;;;;;;15.77;7.25;;;;;;;;;;5050608;28;20118;-64
2021/03/07 10:54:45;;;;;;;12.23;7.03;;;;;;;;;;5050679;28;20438;-64
2021/03/07 10:57:10;;;;;;;14.32;8.82;;;;;;;;;;5042088;28;20290;-64
2021/03/07 10:59:36;;;;;;;14.55;6.63;;;;;;;;;;5050975;28;20539;-64
2021/03/07 11:02:03;;;;;;;16.15;7.07;;;;;;;;;;5048204;28;20017;-64
2021/03/07 11:04:29;;;;;;;11.05;6.38;;;;;;;;;;5049027;28;20097;-64
2021/03/07 11:06:54;;;;;;;11.97;7.40;;;;;;;;;;5049474;28;20414;-64
2021/03/07 11:09:19;;;;;;;16.23;7.15;;;;;;;;;;5052339;28;20255;-66
2021/03/07 11:11:44;;;;;;;13.43;6.70;;;;;;;;;;5051780;28;20032;-63
2021/03/07 11:14:09;;;;;;;12.95;7.20;;;;;;;;;;5051303;28;20438;-62
2021/03/07 11:16:35;;;;;;;12.60;7.05;;;;;;;;;;5051778;28;20025;-63
2021/03/07 11:19:00;;;;;;;12.00;7.00;;;;;;;;;;5051599;28;20029;-65
2021/03/07 11:21:25;;;;;;;13.17;7.73;;;;;;;;;;5052401;28;20025;-64
2021/03/07 11:23:50;;;;;;;10.68;6.78;;;;;;;;;;5052126;28;20287;-64
2021/03/07 11:26:15;;;;;;;13.30;7.23;;;;;;;;;;5052182;28;20110;-64
2021/03/07 11:28:40;;;;;;;17.73;8.33;;;;;;;;;;5051791;28;20267;-64
2021/03/07 11:31:06;;;;;;;16.37;7.77;;;;;;;;;;5051557;28;20290;-64
2021/03/07 11:33:31;;;;;;;10.68;7.35;;;;;;;;;;5052720;28;20278;-64
2021/03/07 11:35:56;;;;;;;11.98;7.93;;;;;;;;;;5054781;28;20029;-66
2021/03/07 11:38:22;;;;;;;14.65;7.82;;;;;;;;;;5053019;28;20021;-66
2021/03/07 11:40:47;;;;;;;14.95;8.63;;;;;;;;;;5055343;28;20529;-65
2021/03/07 11:43:13;;;;;;;14.23;7.57;;;;;;;;;;5056092;28;20086;-64
2021/03/07 11:45:38;;;;;;;12.80;7.45;;;;;;;;;;5050377;28;20600;-65
2021/03/07 11:48:03;;;;;;;13.85;7.32;;;;;;;;;;5051658;28;20381;-66
2021/03/07 11:50:29;;;;;;;13.95;9.13;;;;;;;;;;5055387;28;20025;-65
2021/03/07 11:52:54;;;;;;;12.30;8.60;;;;;;;;;;5053776;28;20463;-65
2021/03/07 11:55:19;;;;;;;17.15;9.73;;;;;;;;;;5051459;28;20021;-64
2021/03/07 11:57:44;;;;;;;19.80;10.70;;;;;;;;;;5057376;28;20024;-65
2021/03/07 12:00:10;;;;;;;16.15;9.65;;;;;;;;;;5059360;28;20628;-65
2021/03/07 12:02:35;;;;;;;15.02;10.18;;;;;;;;;;5054466;28;20472;-64
2021/03/07 12:05:01;;;;;;;15.15;9.95;;;;;;;;;;5057491;28;20032;-65
2021/03/07 12:07:26;;;;;;;22.88;10.30;;;;;;;;;;5054667;28;20017;-65
2021/03/07 12:09:51;;;;;;;16.75;10.25;;;;;;;;;;5052759;28;20547;-65
2021/03/07 12:12:17;;;;;;;22.77;10.68;;;;;;;;;;5052814;28;20036;-65
2021/03/07 12:14:42;;;;;;;15.60;9.50;;;;;;;;;;5053222;28;20116;-65
2021/03/07 12:17:08;;;;;;;19.70;10.35;;;;;;;;;;5045447;28;20025;-64
2021/03/07 12:19:33;;;;;;;19.63;9.27;;;;;;;;;;5052081;28;20017;-63
2021/03/07 12:21:58;;;;;;;20.25;9.68;;;;;;;;;;5055404;28;20016;-64
2021/03/07 12:24:24;;;;;;;15.35;9.18;;;;;;;;;;5054294;28;20695;-65
2021/03/07 12:26:49;;;;;;;15.50;9.13;;;;;;;;;;5056931;28;20108;-63
2021/03/07 12:29:14;;;;;;;14.93;8.90;;;;;;;;;;5056222;28;20075;-64
2021/03/07 12:31:39;;;;;;;18.02;9.25;;;;;;;;;;5054173;28;20029;-64
2021/03/07 12:34:05;;;;;;;14.57;8.52;;;;;;;;;;5054472;28;20056;-66
2021/03/07 12:36:30;;;;;;;18.85;9.70;;;;;;;;;;5055203;28;20059;-65
2021/03/07 12:38:55;;;;;;;14.55;8.95;;;;;;;;;;5055737;28;20424;-65
2021/03/07 12:41:21;;;;;;;16.13;8.82;;;;;;;;;;5053229;28;20024;-65
2021/03/07 12:43:46;;;;;;;16.10;8.38;;;;;;;;;;5052640;28;20041;-66
2021/03/07 12:46:11;;;;;;;14.32;8.70;;;;;;;;;;5052221;28;20017;-65
2021/03/07 12:48:37;;;;;;;16.67;8.30;;;;;;;;;;5051116;28;20060;-64
2021/03/07 12:51:02;;;;;;;14.75;8.40;;;;;;;;;;5051501;28;20021;-65
2021/03/07 12:53:27;;;;;;;18.75;8.55;;;;;;;;;;5050953;28;20024;-64
2021/03/07 12:55:53;;;;;;;15.05;9.30;;;;;;;;;;5051917;28;20032;-66
2021/03/07 12:58:18;;;;;;;13.73;8.48;;;;;;;;;;5051401;28;20024;-65
2021/03/07 13:00:43;;;;;;;17.55;9.95;;;;;;;;;;5051556;28;20029;-66
2021/03/07 13:03:08;;;;;;;14.37;8.33;;;;;;;;;;5046567;28;20029;-66
2021/03/07 13:05:33;;;;;;;11.65;7.72;;;;;;;;;;5049161;28;20260;-62
2021/03/07 13:07:58;;;;;;;17.90;8.70;;;;;;;;;;5050647;28;20502;-66
2021/03/07 13:10:24;;;;;;;12.10;8.23;;;;;;;;;;5051886;28;20025;-65
2021/03/07 13:12:49;;;;;;;15.27;8.20;;;;;;;;;;5045612;28;20025;-64
2021/03/07 13:15:14;;;;;;;19.33;9.52;;;;;;;;;;5048778;28;20107;-64
2021/03/07 13:17:42;;;;;;;13.32;8.00;;;;;;;;;;5049288;28;20507;-65
2021/03/07 13:20:08;;;;;;;16.52;8.60;;;;;;;;;;5049755;28;20029;-64
2021/03/07 13:22:34;;;;;;;15.73;8.60;;;;;;;;;;5038959;28;20017;-64
2021/03/07 13:24:59;;;;;;;12.90;8.30;;;;;;;;;;5045713;28;20025;-64
2021/03/07 13:27:24;;;;;;;14.38;8.10;;;;;;;;;;5048875;28;20077;-64
2021/03/07 13:29:50;;;;;;;19.90;9.13;;;;;;;;;;5049234;28;20036;-64
2021/03/07 13:32:15;;;;;;;13.25;7.88;;;;;;;;;;5048896;28;20096;-66
2021/03/07 13:34:40;;;;;;;15.45;7.95;;;;;;;;;;5050971;28;20527;-64
2021/03/07 13:37:06;;;;;;;13.65;8.65;;;;;;;;;;5050522;28;20021;-65
2021/03/07 13:39:31;;;;;;;12.63;8.30;;;;;;;;;;5050134;28;20021;-64
2021/03/07 13:41:57;;;;;;;16.45;8.00;;;;;;;;;;5048272;28;20017;-65
2021/03/07 13:44:22;;;;;;;16.70;8.73;;;;;;;;;;5050835;28;20162;-65
2021/03/07 13:46:47;;;;;;;13.17;7.67;;;;;;;;;;5049494;28;20032;-64
2021/03/07 13:49:13;;;;;;;14.60;7.35;;;;;;;;;;5049248;28;20764;-66
2021/03/07 13:51:38;;;;;;;12.75;8.13;;;;;;;;;;5048002;28;20113;-64
2021/03/07 13:54:03;;;;;;;12.65;8.15;;;;;;;;;;5047781;28;20159;-66
2021/03/07 13:56:28;;;;;;;11.82;7.75;;;;;;;;;;5049855;28;20028;-63
2021/03/07 13:58:54;;;;;;;11.70;7.30;;;;;;;;;;5048326;28;20099;-65
2021/03/07 14:01:19;;;;;;;12.68;7.70;;;;;;;;;;5049332;28;20021;-63
2021/03/07 14:03:44;;;;;;;12.38;8.10;;;;;;;;;;5044019;28;20025;-65
2021/03/07 14:06:09;;;;;;;12.80;7.82;;;;;;;;;;5051200;28;20444;-65
2021/03/07 14:08:35;;;;;;;13.05;8.77;;;;;;;;;;5051206;28;20040;-64
2021/03/07 14:11:00;;;;;;;12.75;7.93;;;;;;;;;;5051472;28;20045;-64
2021/03/07 14:13:25;;;;;;;14.63;7.82;;;;;;;;;;5054035;28;20040;-65
2021/03/07 14:15:50;;;;;;;11.82;7.72;;;;;;;;;;5051153;28;20025;-65
2021/03/07 14:18:15;;;;;;;13.07;8.02;;;;;;;;;;5052757;28;20381;-64
2021/03/07 14:20:41;;;;;;;15.63;9.17;;;;;;;;;;5052307;28;20435;-64
2021/03/07 14:23:06;;;;;;;12.25;8.20;;;;;;;;;;5044954;28;20283;-64
2021/03/07 14:25:31;;;;;;;18.30;7.82;;;;;;;;;;5052405;28;20028;-64
2021/03/07 14:27:56;;;;;;;14.05;8.68;;;;;;;;;;5052579;28;20087;-64
2021/03/07 14:30:22;;;;;;;12.90;8.50;;;;;;;;;;5052757;28;20029;-64